Time;durP1;ratioP1;P1;durP2;ratioP2;P2;SDS_P1;SDS_P2;PMS_P1;PMS_P2;Temp;Humidity;BMP_temperature;BMP_pressure;BME280_temperature;BME280_humidity;BME280_pressure;Samples;Min_cycle;Max_cycle;Signal;HPM_P1;HPM_P2
2021/08/30 00:01:03;;;;;;;3.22;2.92;;;;;;;14.73;100.00;99433.59;5114053;28;20196;-73
2021/08/30 00:03:30;;;;;;;4.22;2.67;;;;;;;14.69;100.00;99435.69;5114006;28;20318;-73
2021/08/30 00:05:56;;;;;;;7.68;2.70;;;;;;;14.58;100.00;99432.94;5114214;28;20191;-73
2021/08/30 00:08:23;;;;;;;3.97;2.72;;;;;;;14.57;100.00;99429.38;5114174;28;21592;-72
2021/08/30 00:10:49;;;;;;;3.05;2.47;;;;;;;14.66;100.00;99437.78;5114186;28;20630;-72
2021/08/30 00:13:16;;;;;;;2.50;2.30;;;;;;;14.78;100.00;99434.09;5113694;28;20218;-72
2021/08/30 00:15:43;;;;;;;3.40;2.70;;;;;;;14.84;100.00;99427.34;5114211;28;20643;-72
2021/08/30 00:18:11;;;;;;;4.50;2.30;;;;;;;14.78;100.00;99428.69;5114028;28;20274;-73
2021/08/30 00:20:37;;;;;;;5.68;2.80;;;;;;;14.72;100.00;99426.44;5114082;28;20184;-73
2021/08/30 00:23:04;;;;;;;4.22;2.80;;;;;;;14.86;100.00;99425.41;5114045;28;20533;-73
2021/08/30 00:25:31;;;;;;;3.08;2.33;;;;;;;14.83;100.00;99429.19;5113713;28;20196;-73
2021/08/30 00:27:57;;;;;;;3.85;3.20;;;;;;;14.85;100.00;99426.34;5113730;28;20182;-73
2021/08/30 00:30:24;;;;;;;4.38;2.50;;;;;;;14.75;100.00;99418.94;5113457;28;20590;-73
2021/08/30 00:32:51;;;;;;;3.75;2.55;;;;;;;14.74;100.00;99425.38;5113720;28;20711;-73
2021/08/30 00:35:19;;;;;;;3.25;2.50;;;;;;;14.64;100.00;99413.50;5113471;28;20187;-74
2021/08/30 00:37:46;;;;;;;3.20;2.90;;;;;;;14.72;100.00;99410.19;5113345;28;20281;-73
2021/08/30 00:40:15;;;;;;;5.90;3.58;;;;;;;14.68;100.00;99419.56;5113505;28;20195;-73
2021/08/30 00:42:42;;;;;;;3.72;2.70;;;;;;;14.64;100.00;99413.50;5113390;28;20193;-73
2021/08/30 00:45:09;;;;;;;3.30;2.95;;;;;;;14.67;100.00;99420.53;5113523;28;20196;-74
2021/08/30 00:47:37;;;;;;;6.72;3.08;;;;;;;14.82;100.00;99416.63;5113232;28;20606;-73
2021/08/30 00:50:04;;;;;;;9.60;2.90;;;;;;;14.93;100.00;99410.38;5113347;28;20652;-73
2021/08/30 00:52:33;;;;;;;5.70;2.90;;;;;;;14.82;100.00;99415.78;5112984;28;20268;-74
2021/08/30 00:55:00;;;;;;;4.32;3.00;;;;;;;14.92;100.00;99409.47;5112992;28;20184;-73
2021/08/30 00:57:27;;;;;;;4.45;3.17;;;;;;;14.79;100.00;99408.75;5112846;28;20225;-73
2021/08/30 00:59:54;;;;;;;3.40;2.83;;;;;;;14.73;100.00;99410.06;5113206;28;20223;-73
2021/08/30 01:02:20;;;;;;;3.70;3.17;;;;;;;14.79;100.00;99406.03;5112784;28;20223;-73
2021/08/30 01:04:47;;;;;;;4.35;3.35;;;;;;;14.89;100.00;99404.31;5112408;28;20194;-73
2021/08/30 01:07:19;;;;;;;4.78;3.05;;;;;;;14.84;100.00;99397.53;5112823;28;20216;-73
2021/08/30 01:09:54;;;;;;;3.33;3.03;;;;;;;14.70;100.00;99399.50;5112983;28;20266;-73
2021/08/30 01:12:25;;;;;;;4.78;3.25;;;;;;;14.83;100.00;99396.66;5112747;28;20203;-73
2021/08/30 01:14:56;;;;;;;3.25;2.95;;;;;;;14.87;100.00;99408.97;5104747;28;20647;-72
2021/08/30 01:17:24;;;;;;;6.43;3.40;;;;;;;14.80;100.00;99397.75;5112878;28;20283;-72
2021/08/30 01:20:00;;;;;;;3.40;2.85;;;;;;;14.80;100.00;99399.63;5112291;28;20198;-73
2021/08/30 01:22:29;;;;;;;4.15;2.65;;;;;;;14.84;100.00;99409.25;5112687;28;20215;-73
2021/08/30 01:25:00;;;;;;;4.05;3.40;;;;;;;14.96;100.00;99407.41;5105013;28;20184;-73
2021/08/30 01:27:28;;;;;;;4.00;3.55;;;;;;;14.94;100.00;99410.22;5112427;28;20225;-73
2021/08/30 01:30:01;;;;;;;4.25;3.05;;;;;;;14.91;100.00;99406.91;5112771;28;20201;-73
2021/08/30 01:32:31;;;;;;;3.30;2.58;;;;;;;15.08;100.00;99413.69;5112395;28;20290;-73
2021/08/30 01:35:00;;;;;;;4.00;2.83;;;;;;;14.97;100.00;99420.00;5104137;28;20180;-73
2021/08/30 01:37:27;;;;;;;3.97;3.08;;;;;;;15.19;100.00;99413.69;5112369;28;20210;-73
2021/08/30 01:39:55;;;;;;;4.20;3.20;;;;;;;15.05;100.00;99412.09;5112007;28;20633;-73
2021/08/30 01:42:23;;;;;;;4.90;2.80;;;;;;;15.17;100.00;99415.66;5112463;28;20191;-73
2021/08/30 01:44:50;;;;;;;3.60;2.80;;;;;;;15.09;100.00;99415.44;5112532;28;20188;-73
2021/08/30 01:47:18;;;;;;;3.53;2.83;;;;;;;15.10;100.00;99411.72;5112388;28;20708;-71
2021/08/30 01:49:49;;;;;;;3.55;2.88;;;;;;;15.05;100.00;99412.09;5112383;28;20195;-73
2021/08/30 01:52:17;;;;;;;4.85;3.53;;;;;;;14.93;100.00;99408.50;5111941;28;20211;-72
2021/08/30 01:54:45;;;;;;;5.63;3.50;;;;;;;15.01;100.00;99416.03;5111809;28;20274;-72
2021/08/30 01:57:19;;;;;;;4.22;3.08;;;;;;;15.14;100.00;99413.22;5112024;28;20191;-72
2021/08/30 02:02:31;;;;;;;5.50;3.97;;;;;;;15.17;100.00;99421.09;5112131;28;20230;-74
2021/08/30 02:04:59;;;;;;;7.50;4.13;;;;;;;15.23;100.00;99413.31;5112270;28;20213;-73
2021/08/30 02:07:26;;;;;;;6.22;3.67;;;;;;;15.23;100.00;99405.19;5112089;28;20282;-74
2021/08/30 02:09:53;;;;;;;3.40;3.10;;;;;;;15.30;100.00;99405.56;5112162;28;20203;-74
2021/08/30 02:12:20;;;;;;;6.35;4.07;;;;;;;15.21;100.00;99409.00;5112214;28;20295;-74
2021/08/30 02:14:46;;;;;;;4.50;3.30;;;;;;;15.19;100.00;99394.72;5111619;28;20275;-74
2021/08/30 02:17:21;;;;;;;6.43;3.47;;;;;;;15.13;100.00;99406.94;5103948;28;20195;-73
2021/08/30 02:19:55;;;;;;;3.50;3.03;;;;;;;15.14;100.00;99403.22;5112090;28;20265;-73
2021/08/30 02:22:30;;;;;;;3.95;3.53;;;;;;;15.29;100.00;99408.41;5112116;28;20204;-75
2021/08/30 02:25:03;;;;;;;5.15;3.72;;;;;;;15.37;100.00;99412.19;5111402;28;20186;-73
2021/08/30 02:27:35;;;;;;;6.35;3.80;;;;;;;15.17;100.00;99415.66;5111745;28;20282;-74
2021/08/30 02:30:05;;;;;;;4.38;3.42;;;;;;;15.23;100.00;99415.19;5111547;28;20278;-72
2021/08/30 02:32:33;;;;;;;5.82;3.83;;;;;;;15.02;100.00;99412.34;5112130;28;20207;-72
2021/08/30 02:35:02;;;;;;;6.53;4.20;;;;;;;15.14;100.00;99413.22;5111499;28;20186;-72
2021/08/30 02:37:32;;;;;;;4.65;3.92;;;;;;;15.20;100.00;99412.72;5111412;28;20195;-72
2021/08/30 02:40:01;;;;;;;5.55;4.20;;;;;;;15.29;100.00;99420.13;5111549;28;20194;-73
2021/08/30 02:42:30;;;;;;;8.45;4.35;;;;;;;15.32;100.00;99416.28;5111682;28;20271;-73
2021/08/30 02:44:58;;;;;;;6.57;4.13;;;;;;;15.29;100.00;99414.69;5111633;28;20207;-73
2021/08/30 02:47:27;;;;;;;5.15;3.75;;;;;;;15.18;100.00;99412.84;5104230;28;20198;-73
2021/08/30 02:49:54;;;;;;;5.28;3.63;;;;;;;15.31;100.00;99406.41;5111917;28;20219;-73
2021/08/30 02:52:24;;;;;;;5.88;4.70;;;;;;;15.34;100.00;99407.03;5115270;28;20217;-73
2021/08/30 02:54:53;;;;;;;5.55;4.30;;;;;;;15.16;100.00;99412.09;5115859;28;20195;-73
2021/08/30 02:57:21;;;;;;;5.70;4.50;;;;;;;15.27;100.00;99415.81;5115646;28;20195;-73
2021/08/30 02:59:50;;;;;;;5.78;3.45;;;;;;;15.24;100.00;99419.63;5115802;28;20626;-73
2021/08/30 03:02:18;;;;;;;7.63;5.05;;;;;;;15.16;100.00;99409.38;5115466;28;20223;-74
2021/08/30 03:04:45;;;;;;;6.60;4.70;;;;;;;15.25;100.00;99405.06;5115530;28;20606;-73
2021/08/30 03:07:13;;;;;;;6.07;4.63;;;;;;;15.45;100.00;99410.75;5115452;28;20623;-73
2021/08/30 03:09:40;;;;;;;5.65;4.65;;;;;;;15.32;100.00;99402.72;5115359;28;20278;-74
2021/08/30 03:12:10;;;;;;;7.00;4.80;;;;;;;15.11;100.00;99411.59;5115009;28;20676;-72
2021/08/30 03:14:39;;;;;;;6.13;4.43;;;;;;;15.27;100.00;99405.81;5115254;28;20191;-73
2021/08/30 03:17:11;;;;;;;8.52;5.70;;;;;;;15.33;100.00;99401.72;5115014;28;20260;-73
2021/08/30 03:19:40;;;;;;;10.70;4.97;;;;;;;15.16;100.00;99401.25;5107966;28;20219;-73
2021/08/30 03:22:08;;;;;;;8.38;5.47;;;;;;;15.16;100.00;99397.69;5115041;28;20191;-73
2021/08/30 03:24:35;;;;;;;7.60;5.07;;;;;;;15.16;100.00;99403.97;5115095;28;20643;-74
2021/08/30 03:27:02;;;;;;;9.50;5.40;;;;;;;15.04;100.00;99394.09;5115141;28;20193;-74
2021/08/30 03:29:31;;;;;;;6.80;5.03;;;;;;;15.09;100.00;99396.44;5114994;28;20608;-73
2021/08/30 03:31:58;;;;;;;6.82;4.85;;;;;;;15.25;100.00;99401.50;5114796;28;20184;-73
2021/08/30 03:34:25;;;;;;;6.60;4.80;;;;;;;15.15;100.00;99410.38;5114899;28;20218;-73
2021/08/30 03:36:52;;;;;;;6.90;5.00;;;;;;;15.34;100.00;99407.03;5115258;28;20921;-73
2021/08/30 03:39:20;;;;;;;8.75;5.57;;;;;;;15.47;100.00;99404.19;5114679;28;20184;-73
2021/08/30 03:41:50;;;;;;;7.30;5.55;;;;;;;15.42;100.00;99404.56;5114697;28;20198;-73
2021/08/30 03:44:17;;;;;;;13.23;9.30;;;;;;;15.55;100.00;99398.13;5114742;28;20596;-73
2021/08/30 03:46:46;;;;;;;9.57;5.97;;;;;;;15.55;100.00;99398.13;5114586;28;20282;-73
2021/08/30 03:49:13;;;;;;;9.32;5.07;;;;;;;15.52;100.00;99399.25;5114337;28;20180;-73
2021/08/30 03:51:41;;;;;;;11.18;5.82;;;;;;;15.54;100.00;99396.41;5114352;28;20592;-73
2021/08/30 03:54:09;;;;;;;8.95;6.18;;;;;;;15.50;100.00;99398.50;5114660;28;20206;-72
2021/08/30 03:56:36;;;;;;;8.38;6.07;;;;;;;15.31;100.00;99414.53;5114258;28;20621;-73
2021/08/30 03:59:04;;;;;;;8.10;6.30;;;;;;;15.27;100.00;99407.66;5113752;28;20274;-72
2021/08/30 04:01:32;;;;;;;9.55;6.70;;;;;;;15.31;100.00;99404.59;5113371;28;20696;-73
2021/08/30 04:04:01;;;;;;;14.68;7.15;;;;;;;15.37;100.00;99412.19;5114229;28;20207;-73
2021/08/30 04:06:30;;;;;;;11.57;7.00;;;;;;;15.15;100.00;99412.22;5113857;28;20191;-73
2021/08/30 04:08:58;;;;;;;10.00;6.68;;;;;;;15.33;100.00;99416.19;5114369;28;20601;-73
2021/08/30 04:11:25;;;;;;;9.20;6.20;;;;;;;15.27;100.00;99405.81;5114048;28;20206;-73
2021/08/30 04:13:53;;;;;;;13.18;7.35;;;;;;;15.36;100.00;99415.06;5113264;28;20290;-74
2021/08/30 04:16:19;;;;;;;11.20;6.20;;;;;;;15.42;100.00;99411.81;5113760;28;20183;-73
2021/08/30 04:18:46;;;;;;;10.50;6.63;;;;;;;15.44;100.00;99401.72;5113879;28;20202;-73
2021/08/30 04:21:14;;;;;;;13.15;6.78;;;;;;;15.34;100.00;99411.59;5113909;28;20630;-73
2021/08/30 04:23:41;;;;;;;11.38;6.82;;;;;;;15.27;100.00;99411.25;5113772;28;20180;-73
2021/08/30 04:26:07;;;;;;;10.13;5.82;;;;;;;15.14;100.00;99396.94;5113570;28;20192;-73
2021/08/30 04:28:34;;;;;;;9.77;5.95;;;;;;;15.09;100.00;99408.16;5113766;28;20191;-73
2021/08/30 04:31:00;;;;;;;11.77;6.38;;;;;;;15.13;100.00;99404.22;5113018;28;20227;-73
2021/08/30 04:33:27;;;;;;;11.00;5.97;;;;;;;15.39;100.00;99403.94;5113757;28;20282;-73
2021/08/30 04:35:54;;;;;;;8.75;5.70;;;;;;;15.34;100.00;99412.47;5112949;28;20203;-73
2021/08/30 04:38:21;;;;;;;8.95;6.00;;;;;;;15.13;100.00;99415.06;5113708;28;20275;-73
2021/08/30 04:40:48;;;;;;;9.90;6.38;;;;;;;15.10;100.00;99418.00;5113694;28;20179;-72
2021/08/30 04:43:15;;;;;;;8.65;6.60;;;;;;;15.12;100.00;99418.75;5112769;28;20198;-73
2021/08/30 04:45:43;;;;;;;7.15;5.05;;;;;;;15.27;100.00;99415.81;5113383;28;20187;-73
2021/08/30 04:48:10;;;;;;;10.27;6.63;;;;;;;15.15;100.00;99423.94;5112966;28;20193;-73
2021/08/30 04:50:37;;;;;;;9.55;5.78;;;;;;;15.30;100.00;99426.41;5113132;28;20279;-72
2021/08/30 04:53:04;;;;;;;11.57;7.05;;;;;;;15.28;100.00;99421.09;5113114;28;20210;-72
2021/08/30 04:55:32;;;;;;;11.07;7.00;;;;;;;15.40;100.00;99427.41;5112848;28;20192;-73
2021/08/30 04:57:59;;;;;;;8.23;5.72;;;;;;;15.54;100.00;99435.28;5113066;28;20663;-72
2021/08/30 05:00:25;;;;;;;9.80;5.38;;;;;;;15.72;100.00;99430.22;5112694;28;20202;-72
2021/08/30 05:02:52;;;;;;;11.07;7.35;;;;;;;15.44;100.00;99428.84;5112533;28;20302;-72
2021/08/30 05:05:19;;;;;;;9.95;6.43;;;;;;;15.61;100.00;99425.63;5112795;28;20274;-73
2021/08/30 05:07:45;;;;;;;10.77;6.75;;;;;;;15.60;100.00;99428.47;5104156;28;20179;-73
2021/08/30 05:10:13;;;;;;;8.73;6.82;;;;;;;15.54;100.00;99428.97;5112771;28;20624;-73
2021/08/30 05:12:41;;;;;;;8.05;7.22;;;;;;;15.69;100.00;99425.00;5112115;28;20384;-73
2021/08/30 05:15:09;;;;;;;8.85;6.25;;;;;;;15.78;100.00;99432.44;5112216;28;20621;-74
2021/08/30 05:17:35;;;;;;;10.48;6.45;;;;;;;15.85;100.00;99427.34;5112847;28;20609;-74
2021/08/30 05:20:02;;;;;;;9.90;6.30;;;;;;;15.88;100.00;99428.97;5112688;28;20199;-74
2021/08/30 05:22:29;;;;;;;9.25;5.65;;;;;;;15.84;100.00;99431.91;5112708;28;20301;-72
2021/08/30 05:24:55;;;;;;;8.45;6.38;;;;;;;15.93;100.00;99435.72;5112515;28;20186;-72
2021/08/30 05:27:22;;;;;;;11.95;8.15;;;;;;;15.86;100.00;99431.78;5112410;28;20206;-73
2021/08/30 05:29:50;;;;;;;6.85;5.32;;;;;;;15.88;100.00;99440.69;5112837;28;20267;-73
2021/08/30 05:32:17;;;;;;;9.20;6.60;;;;;;;15.85;100.00;99435.47;5112476;28;20271;-72
2021/08/30 05:34:44;;;;;;;10.38;6.00;;;;;;;15.96;100.00;99440.88;5111954;28;20292;-73
2021/08/30 05:37:10;;;;;;;9.55;6.20;;;;;;;15.91;100.00;99436.84;5112274;28;20222;-74
2021/08/30 05:39:37;;;;;;;8.43;5.90;;;;;;;15.68;100.00;99442.28;5112395;28;20187;-72
2021/08/30 05:42:04;;;;;;;10.23;5.78;;;;;;;15.77;100.00;99441.56;5112504;28;20268;-74
2021/08/30 05:44:31;;;;;;;9.38;6.45;;;;;;;15.85;100.00;99446.34;5112895;28;20183;-73
2021/08/30 05:46:59;;;;;;;7.57;5.40;;;;;;;15.84;100.00;99442.78;5112093;28;20184;-74
2021/08/30 05:49:25;;;;;;;9.18;6.13;;;;;;;15.62;100.00;99454.50;5111903;28;20201;-73
2021/08/30 05:51:52;;;;;;;8.82;5.50;;;;;;;15.48;100.00;99454.75;5112334;28;20186;-73
2021/08/30 05:54:19;;;;;;;11.63;6.32;;;;;;;15.56;100.00;99452.28;5112609;28;20204;-73
2021/08/30 05:56:45;;;;;;;10.85;6.88;;;;;;;15.61;100.00;99454.63;5112752;28;20198;-73
2021/08/30 05:59:12;;;;;;;8.43;5.57;;;;;;;15.68;100.00;99460.41;5112781;28;20228;-72
2021/08/30 06:01:41;;;;;;;9.40;6.38;;;;;;;15.56;100.00;99465.84;5111969;28;20230;-72
2021/08/30 06:04:09;;;;;;;9.23;6.13;;;;;;;15.53;100.00;99452.53;5112618;28;20178;-72
2021/08/30 06:06:35;;;;;;;9.93;5.97;;;;;;;15.51;100.00;99459.06;5112361;28;20211;-72
2021/08/30 06:09:02;;;;;;;10.73;6.32;;;;;;;15.46;100.00;99464.00;5112155;28;20184;-73
2021/08/30 06:11:28;;;;;;;8.77;6.20;;;;;;;15.72;100.00;99461.94;5111972;28;20701;-72
2021/08/30 06:13:55;;;;;;;9.85;6.18;;;;;;;15.63;100.00;99467.09;5111858;28;20306;-72
2021/08/30 06:16:22;;;;;;;7.68;5.55;;;;;;;15.61;100.00;99465.47;5112019;28;20179;-72
2021/08/30 06:18:48;;;;;;;11.93;6.95;;;;;;;15.53;100.00;99457.09;5112313;28;20223;-73
2021/08/30 06:21:16;;;;;;;10.70;7.00;;;;;;;15.52;100.00;99452.66;5111901;28;20274;-72
2021/08/30 06:23:43;;;;;;;11.40;6.95;;;;;;;15.58;100.00;99454.84;5112187;28;20183;-73
2021/08/30 06:26:10;;;;;;;10.85;7.15;;;;;;;15.66;100.00;99462.41;5116154;28;20294;-73
2021/08/30 06:28:36;;;;;;;12.85;7.30;;;;;;;15.89;100.00;99455.09;5116396;28;20191;-72
2021/08/30 06:31:03;;;;;;;17.90;12.20;;;;;;;15.90;100.00;99460.41;5116273;28;20640;-73
2021/08/30 06:33:30;;;;;;;13.95;7.40;;;;;;;15.98;100.00;99465.22;5115932;28;20314;-73
2021/08/30 06:35:56;;;;;;;17.88;7.50;;;;;;;15.91;100.00;99477.56;5116119;28;20219;-72
2021/08/30 06:38:24;;;;;;;18.95;8.13;;;;;;;15.96;100.00;99462.59;5116409;28;20613;-72
2021/08/30 06:40:51;;;;;;;13.82;6.95;;;;;;;15.74;100.00;99468.97;5115837;28;20286;-72
2021/08/30 06:43:17;;;;;;;14.27;7.28;;;;;;;15.74;100.00;99468.09;5116001;28;20203;-72
2021/08/30 06:45:44;;;;;;;10.38;7.18;;;;;;;15.89;100.00;99471.41;5116041;28;20309;-72
2021/08/30 06:48:11;;;;;;;12.77;8.93;;;;;;;16.04;100.00;99462.00;5115541;28;20191;-71
2021/08/30 06:50:37;;;;;;;12.63;7.90;;;;;;;16.22;100.00;99463.16;5115702;28;20203;-73
2021/08/30 06:53:04;;;;;;;12.02;7.57;;;;;;;16.10;100.00;99457.88;5115823;28;20190;-73
2021/08/30 06:55:35;;;;;;;10.93;7.88;;;;;;;16.27;100.00;99460.06;5116033;28;20262;-73
2021/08/30 06:58:02;;;;;;;13.88;8.77;;;;;;;16.35;100.00;99460.28;5116036;28;20641;-73
2021/08/30 07:00:28;;;;;;;15.05;8.43;;;;;;;16.55;100.00;99463.16;5115485;28;20311;-73
2021/08/30 07:02:55;;;;;;;14.02;8.23;;;;;;;16.74;100.00;99455.16;5114833;28;20247;-72
2021/08/30 07:05:21;;;;;;;15.65;9.18;;;;;;;16.77;100.00;99459.47;5115611;28;20279;-72
2021/08/30 07:07:48;;;;;;;9.02;7.07;;;;;;;17.01;100.00;99454.66;5114245;28;20586;-74
2021/08/30 07:10:15;;;;;;;10.38;7.85;;;;;;;17.07;100.00;99459.56;5114330;28;20219;-74
2021/08/30 07:12:43;;;;;;;10.30;7.40;;;;;;;17.11;100.00;99457.44;5114287;28;20533;-74
2021/08/30 07:15:11;;;;;;;12.23;7.60;;;;;;;16.74;100.00;99466.03;5114151;28;20203;-73
2021/08/30 07:17:38;;;;;;;11.00;6.82;;;;;;;16.71;100.00;99457.28;5113885;28;20192;-73
2021/08/30 07:20:05;;;;;;;9.75;7.47;;;;;;;16.80;100.00;99459.22;5114343;28;20191;-73
2021/08/30 07:22:32;;;;;;;11.57;8.25;;;;;;;16.95;100.00;99467.94;5113753;28;20299;-73
2021/08/30 07:24:58;;;;;;;13.80;8.40;;;;;;;17.05;100.00;99461.56;5114223;28;20211;-73
2021/08/30 07:27:25;;;;;;;10.57;7.95;;;;;;;17.33;100.00;99472.75;5114039;28;20205;-73
2021/08/30 07:29:53;;;;;;;10.35;8.45;;;;;;;17.61;98.94;99467.56;5113588;28;20275;-73
2021/08/30 07:32:20;;;;;;;12.48;8.77;;;;;;;17.83;96.87;99467.38;5114028;28;20188;-74
2021/08/30 07:34:47;;;;;;;10.48;8.93;;;;;;;17.97;95.25;99473.44;5113739;28;20729;-74
2021/08/30 07:37:14;;;;;;;10.27;7.88;;;;;;;18.30;92.79;99464.91;5113187;28;20201;-74
2021/08/30 07:39:41;;;;;;;10.10;7.18;;;;;;;18.49;89.89;99471.34;5113313;28;20233;-74
2021/08/30 07:42:07;;;;;;;13.00;8.80;;;;;;;18.49;87.42;99468.63;5113356;28;20182;-74
2021/08/30 07:44:34;;;;;;;13.10;7.60;;;;;;;18.20;90.05;99465.88;5113737;28;20190;-74
2021/08/30 07:47:02;;;;;;;9.27;7.85;;;;;;;18.48;89.49;99467.78;5113737;28;20200;-74
2021/08/30 07:49:29;;;;;;;12.38;8.48;;;;;;;18.10;89.37;99468.59;5113816;28;20195;-72
2021/08/30 07:51:56;;;;;;;13.00;8.10;;;;;;;18.15;91.31;99468.19;5113609;28;20216;-73
2021/08/30 07:54:23;;;;;;;11.45;8.77;;;;;;;18.52;88.75;99480.13;5113819;28;20690;-73
2021/08/30 07:56:49;;;;;;;11.82;8.27;;;;;;;18.58;87.10;99483.28;5113292;28;20281;-74
2021/08/30 07:59:16;;;;;;;9.77;8.65;;;;;;;18.86;85.15;99487.91;5113682;28;20282;-73
2021/08/30 08:01:42;;;;;;;12.60;9.80;;;;;;;18.82;86.80;99491.94;5112991;28;20759;-73
2021/08/30 08:04:10;;;;;;;13.80;9.32;;;;;;;18.90;86.08;99489.34;5113739;28;20183;-73
2021/08/30 08:06:37;;;;;;;15.68;9.20;;;;;;;19.12;84.37;99487.28;5113450;28;20196;-72
2021/08/30 08:09:05;;;;;;;11.15;8.80;;;;;;;18.91;85.84;99491.06;5113507;28;20279;-72
2021/08/30 08:11:32;;;;;;;11.07;9.52;;;;;;;18.90;85.26;99491.19;5113736;28;20193;-73
2021/08/30 08:13:58;;;;;;;11.63;9.27;;;;;;;19.02;85.76;99494.66;5112940;28;20216;-72
2021/08/30 08:16:25;;;;;;;11.38;8.55;;;;;;;19.17;84.70;99494.03;5112886;28;20187;-73
2021/08/30 08:18:52;;;;;;;10.95;8.43;;;;;;;20.08;79.98;99498.91;5112979;28;20191;-74
2021/08/30 08:21:21;;;;;;;8.93;7.90;;;;;;;20.53;76.75;99492.56;5113042;28;20192;-73
2021/08/30 08:23:48;;;;;;;12.00;9.50;;;;;;;20.37;75.09;99497.81;5113072;28;20486;-72
2021/08/30 08:26:15;;;;;;;12.80;8.82;;;;;;;20.03;75.83;99503.94;5112973;28;20451;-73
2021/08/30 08:28:41;;;;;;;12.37;9.30;;;;;;;19.87;77.21;99503.75;5111997;28;20278;-72
2021/08/30 08:31:08;;;;;;;10.27;9.20;;;;;;;19.61;77.77;99507.13;5112620;28;20918;-73
2021/08/30 08:33:35;;;;;;;12.43;10.20;;;;;;;19.89;78.39;99498.97;5112796;28;20949;-73
2021/08/30 08:36:01;;;;;;;10.07;9.05;;;;;;;20.06;75.87;99510.97;5112764;28;20464;-73
2021/08/30 08:38:29;;;;;;;10.60;9.50;;;;;;;20.48;74.94;99505.81;5112557;28;20199;-73
2021/08/30 08:40:57;;;;;;;9.70;8.70;;;;;;;20.85;73.62;99509.44;5112377;28;20926;-73
2021/08/30 08:43:24;;;;;;;12.20;9.53;;;;;;;20.81;73.05;99504.28;5112578;28;20425;-72
2021/08/30 08:45:52;;;;;;;13.30;9.60;;;;;;;20.74;72.88;99505.94;5112920;28;20886;-75
2021/08/30 08:48:23;;;;;;;11.57;9.67;;;;;;;20.50;73.75;99511.97;5113061;28;20524;-72
2021/08/30 08:50:50;;;;;;;10.53;9.53;;;;;;;20.00;76.42;99526.13;5112986;28;20465;-73
2021/08/30 08:53:16;;;;;;;12.10;11.00;;;;;;;20.16;75.83;99523.56;5113812;28;20544;-73
2021/08/30 08:55:44;;;;;;;9.77;8.83;;;;;;;19.98;76.64;99523.53;5113582;28;21106;-72
2021/08/30 08:58:13;;;;;;;11.30;10.20;;;;;;;19.61;79.04;99525.41;5113337;28;20452;-72
2021/08/30 09:00:42;;;;;;;11.43;10.33;;;;;;;19.80;78.94;99530.78;5113080;28;20789;-73
2021/08/30 09:03:20;;;;;;;11.70;10.20;;;;;;;19.46;79.37;99522.25;5112733;28;20483;-73
2021/08/30 09:05:46;;;;;;;12.60;11.30;;;;;;;19.39;81.35;99532.91;5113102;28;20870;-72
2021/08/30 09:08:28;;;;;;;13.83;10.27;;;;;;;19.81;79.02;99526.19;5113220;28;20439;-73
2021/08/30 09:10:58;;;;;;;11.43;10.33;;;;;;;19.60;78.50;99527.25;5113325;28;20445;-73
2021/08/30 09:13:29;;;;;;;12.27;11.00;;;;;;;19.57;78.60;99520.22;5112888;28;20429;-73
2021/08/30 09:15:56;;;;;;;13.93;11.77;;;;;;;20.04;76.24;99527.53;5112860;28;20892;-73
2021/08/30 09:18:29;;;;;;;13.80;12.40;;;;;;;19.50;77.47;99527.28;5112509;28;20432;-73
2021/08/30 09:20:56;;;;;;;14.63;13.17;;;;;;;19.40;77.49;99522.84;5113045;28;21301;-73
2021/08/30 09:23:29;;;;;;;13.40;11.87;;;;;;;19.37;78.59;99529.47;5112801;28;20439;-73
2021/08/30 09:26:01;;;;;;;15.50;11.93;;;;;;;19.70;76.58;99525.38;5111785;28;20504;-74
2021/08/30 09:28:29;;;;;;;12.43;11.13;;;;;;;19.69;76.55;99525.53;5111525;28;20477;-74
2021/08/30 09:30:57;;;;;;;13.67;12.33;;;;;;;20.07;74.05;99526.38;5111743;28;20493;-74
2021/08/30 09:33:24;;;;;;;18.23;13.33;;;;;;;20.04;73.09;99527.53;5112260;28;20424;-73
2021/08/30 09:35:56;;;;;;;12.97;11.10;;;;;;;19.94;72.67;99524.88;5112114;28;20465;-73
2021/08/30 09:38:24;;;;;;;13.67;12.27;;;;;;;20.42;71.75;99526.44;5112462;28;20515;-73
2021/08/30 09:40:51;;;;;;;13.37;12.00;;;;;;;20.67;71.04;99523.13;5112111;28;20464;-73
2021/08/30 09:43:22;;;;;;;15.60;11.80;;;;;;;20.59;70.09;99524.75;5111588;28;20520;-73
2021/08/30 09:45:49;;;;;;;11.63;10.53;;;;;;;20.60;69.93;99523.75;5112176;28;20440;-73
2021/08/30 09:48:25;;;;;;;13.37;12.07;;;;;;;20.98;68.63;99526.31;5112048;28;20922;-73
2021/08/30 09:50:51;;;;;;;15.87;12.17;;;;;;;20.68;69.42;99522.97;5111927;28;20516;-74
2021/08/30 09:53:18;;;;;;;12.83;11.47;;;;;;;21.01;69.71;99528.75;5111954;28;20745;-74
2021/08/30 09:55:46;;;;;;;13.33;11.93;;;;;;;21.60;66.68;99526.31;5111565;28;20514;-73
2021/08/30 09:58:15;;;;;;;12.07;10.87;;;;;;;21.66;65.85;99522.91;5111826;28;20914;-73
2021/08/30 10:00:44;;;;;;;13.33;9.57;;;;;;;21.76;64.02;99520.06;5111467;28;20457;-73
2021/08/30 10:03:12;;;;;;;12.37;10.20;;;;;;;21.58;63.59;99518.25;5111792;28;20472;-73
2021/08/30 10:05:39;;;;;;;12.23;10.93;;;;;;;21.34;64.99;99524.38;5112047;28;20436;-74
2021/08/30 10:08:07;;;;;;;14.53;10.90;;;;;;;21.44;65.35;99522.44;5112311;28;20512;-74
2021/08/30 10:10:34;;;;;;;12.90;11.40;;;;;;;21.42;65.19;99518.16;5112211;28;20830;-73
2021/08/30 10:13:01;;;;;;;13.50;12.17;;;;;;;21.80;63.80;99516.84;5111825;28;20510;-74
2021/08/30 10:15:29;;;;;;;12.47;10.50;;;;;;;21.51;63.81;99519.91;5111336;28;20477;-74
2021/08/30 10:17:58;;;;;;;12.47;10.63;;;;;;;21.33;63.94;99522.69;5111562;28;20436;-73
2021/08/30 10:20:26;;;;;;;12.47;11.17;;;;;;;21.86;63.22;99521.66;5111906;28;20428;-72
2021/08/30 10:22:58;;;;;;;11.30;10.10;;;;;;;21.78;62.47;99527.09;5112061;28;20946;-73
2021/08/30 10:25:25;;;;;;;12.30;11.13;;;;;;;22.04;61.81;99532.53;5112144;28;20418;-75
2021/08/30 10:27:57;;;;;;;11.80;10.60;;;;;;;21.60;62.78;99524.44;5112013;28;20425;-73
2021/08/30 10:30:24;;;;;;;13.17;11.10;;;;;;;21.54;63.16;99526.94;5110994;28;20484;-74
2021/08/30 10:32:54;;;;;;;12.80;11.50;;;;;;;21.43;63.43;99517.97;5111747;28;20500;-74
2021/08/30 10:35:25;;;;;;;12.53;10.73;;;;;;;21.39;63.61;99538.47;5111929;28;20555;-75
2021/08/30 10:37:57;;;;;;;12.30;10.93;;;;;;;21.45;63.69;99526.88;5111777;28;20418;-74
2021/08/30 10:40:25;;;;;;;11.60;10.40;;;;;;;21.58;63.14;99539.31;5111707;28;20902;-73
2021/08/30 10:43:00;;;;;;;11.90;10.50;;;;;;;22.15;61.33;99536.00;5111783;28;20533;-74
2021/08/30 10:45:32;;;;;;;10.97;9.80;;;;;;;21.81;60.50;99540.47;5111601;28;20835;-72
2021/08/30 10:48:01;;;;;;;10.53;9.23;;;;;;;22.07;59.81;99539.59;5111193;28;20440;-73
2021/08/30 10:50:30;;;;;;;11.13;9.97;;;;;;;21.91;59.80;99542.22;5111361;28;20447;-73
2021/08/30 10:53:04;;;;;;;11.10;10.00;;;;;;;21.95;60.52;99541.72;5111414;28;20851;-73
2021/08/30 10:55:37;;;;;;;11.00;9.90;;;;;;;22.40;58.34;99537.84;5111788;28;20952;-74
2021/08/30 10:58:12;;;;;;;11.73;9.60;;;;;;;21.72;59.69;99543.34;5111793;28;20871;-73
2021/08/30 11:00:38;;;;;;;13.27;9.60;;;;;;;21.44;62.07;99538.03;5111110;28;20444;-73
2021/08/30 11:03:05;;;;;;;10.30;9.30;;;;;;;21.49;61.65;99543.88;5111114;28;21037;-73
2021/08/30 11:05:33;;;;;;;10.17;9.17;;;;;;;21.70;60.70;99543.50;5111403;28;20471;-74
2021/08/30 11:08:00;;;;;;;9.87;8.87;;;;;;;21.93;60.31;99542.94;5111604;28;20500;-75
2021/08/30 11:10:28;;;;;;;11.30;10.13;;;;;;;22.00;59.89;99533.91;5111533;28;20990;-74
2021/08/30 11:12:56;;;;;;;13.47;11.00;;;;;;;22.08;59.67;99535.81;5114588;28;20498;-75
2021/08/30 11:15:22;;;;;;;11.30;10.17;;;;;;;21.81;60.51;99540.47;5115231;28;21258;-73
2021/08/30 11:17:49;;;;;;;14.20;12.80;;;;;;;21.84;60.56;99531.94;5115265;28;20430;-74
2021/08/30 11:20:17;;;;;;;13.93;11.27;;;;;;;21.79;60.61;99541.66;5115129;28;20429;-76
2021/08/30 11:22:52;;;;;;;12.83;11.43;;;;;;;21.67;60.77;99537.50;5114511;28;20437;-73
2021/08/30 11:25:19;;;;;;;11.93;10.13;;;;;;;21.29;61.65;99534.97;5114644;28;20421;-74
2021/08/30 11:27:45;;;;;;;10.17;9.03;;;;;;;21.09;63.31;99536.16;5114519;28;20457;-74